Vale Real, Brazil
Current Conditions -  °F | °C
As of 6:00 PM on Sunday 23 Nov 2014 (Local Time) from SBCO Reporting Station
Clear Clear  
Wind Chill: 81°   Ceiling: Unl
Heat Index: 81°   Visibility: 6mi
Dew Point: 50°   Wind: 9mph
Humidity: 34%   Direction: 150°SSE
Pressure: 29.91"   Gusts: NA
Location:  29.4°S, 51.25°W
Report Text: SBCO 232000Z 15008KT CAVOK 27/10 Q1013
Loading
Personal Weather Stations






























Interactive Weather Map New forecast layout! Learn more

10-Day Weather Forecast

Advertisements
Track Severe Weather on mobile